Time;durP1;ratioP1;P1;durP2;ratioP2;P2;SDS_P1;SDS_P2;PMS_P1;PMS_P2;Temp;Humidity;BMP_temperature;BMP_pressure;BME280_temperature;BME280_humidity;BME280_pressure;Samples;Min_cycle;Max_cycle;Signal;HPM_P1;HPM_P2
2022/08/25 00:00:35;;;;;;;9.52;4.95;;;;;;;21.14;63.34;93797.16;4960516;28;20023;-79
2022/08/25 00:03:00;;;;;;;11.80;5.97;;;;;;;20.95;63.30;93757.69;4970743;28;20328;-79
2022/08/25 00:05:28;;;;;;;14.57;6.13;;;;;;;21.19;63.40;93786.75;4970995;28;20457;-78
2022/08/25 00:07:54;;;;;;;8.18;4.45;;;;;;;21.09;63.18;93792.88;4970833;28;20038;-80
2022/08/25 00:10:20;;;;;;;10.27;5.60;;;;;;;21.04;63.29;93790.56;4952930;28;20069;-79
2022/08/25 00:12:45;;;;;;;12.88;4.57;;;;;;;20.89;63.42;93765.38;4954791;28;20019;-78
2022/08/25 00:15:10;;;;;;;10.90;5.00;;;;;;;21.10;63.36;93794.44;4970076;28;20399;-78
2022/08/25 00:17:36;;;;;;;18.83;5.30;;;;;;;21.08;63.38;93785.94;4972316;28;20065;-79
2022/08/25 00:20:03;;;;;;;10.95;5.22;;;;;;;20.97;63.37;93774.31;4970787;28;20487;-79
2022/08/25 00:22:29;;;;;;;16.45;5.38;;;;;;;21.05;63.50;93780.50;4971458;28;20031;-80
2022/08/25 00:24:54;;;;;;;9.45;4.75;;;;;;;20.76;63.43;93745.22;4971932;28;20037;-79
2022/08/25 00:27:20;;;;;;;9.75;5.05;;;;;;;20.88;63.39;93749.53;4969703;28;20056;-78
2022/08/25 00:29:46;;;;;;;13.05;4.85;;;;;;;21.12;63.47;93794.06;4971013;28;20505;-78
2022/08/25 00:32:12;;;;;;;13.80;5.18;;;;;;;20.95;63.35;93754.97;4972788;28;20042;-78
2022/08/25 00:34:38;;;;;;;8.75;4.20;;;;;;;21.16;63.18;93782.13;4961436;28;20076;-80
2022/08/25 00:37:08;;;;;;;10.45;5.13;;;;;;;21.18;63.13;93782.50;4959138;28;20363;-80
2022/08/25 00:39:34;;;;;;;9.75;4.30;;;;;;;21.13;63.23;93785.56;4970359;28;20041;-79
2022/08/25 00:41:59;;;;;;;10.70;4.88;;;;;;;21.19;63.01;93785.97;4970943;28;20053;-79
2022/08/25 00:44:27;;;;;;;10.32;4.22;;;;;;;21.17;63.11;93782.91;4952932;28;20027;-81
2022/08/25 00:46:56;;;;;;;14.40;4.32;;;;;;;21.19;63.03;93792.16;4970031;28;20113;-80
2022/08/25 00:49:33;;;;;;;13.13;5.93;;;;;;;20.91;63.17;93767.72;4971087;28;20077;-79
2022/08/25 00:52:07;;;;;;;11.45;4.68;;;;;;;21.06;63.09;93790.19;4968150;28;20027;-81
2022/08/25 00:54:39;;;;;;;9.98;3.85;;;;;;;20.90;63.04;93775.03;4952765;28;20289;-80
2022/08/25 00:57:08;;;;;;;7.95;4.38;;;;;;;21.16;63.18;93797.56;4954225;28;20046;-80
2022/08/25 00:59:33;;;;;;;13.55;4.55;;;;;;;20.85;62.94;93739.47;4969251;28;20037;-80
2022/08/25 01:02:00;;;;;;;9.02;4.07;;;;;;;21.18;62.64;93796.00;4970552;28;20031;-80
2022/08/25 01:04:26;;;;;;;11.98;4.60;;;;;;;21.21;62.77;93783.69;4970625;28;20058;-80
2022/08/25 01:06:54;;;;;;;7.32;5.03;;;;;;;21.23;62.76;93789.47;4960418;28;20113;-80
2022/08/25 01:09:20;;;;;;;11.00;4.72;;;;;;;21.23;62.97;93776.72;4967849;28;20064;-79
2022/08/25 01:11:46;;;;;;;11.13;5.07;;;;;;;21.20;62.89;93766.69;4955409;28;20022;-81
2022/08/25 01:14:15;;;;;;;10.80;4.22;;;;;;;21.03;63.56;93751.16;4969515;28;20023;-80
2022/08/25 01:16:42;;;;;;;12.95;6.30;;;;;;;21.07;63.54;93746.53;4971722;28;20057;-80
2022/08/25 01:19:10;;;;;;;9.82;5.13;;;;;;;20.97;63.81;93742.63;4968491;28;20027;-80
2022/08/25 01:21:39;;;;;;;9.80;6.20;;;;;;;20.95;63.91;93750.34;4969426;28;20368;-80
2022/08/25 01:24:05;;;;;;;10.73;6.63;;;;;;;20.84;63.49;93724.38;4970200;28;20061;-80
2022/08/25 01:26:33;;;;;;;12.32;7.65;;;;;;;21.05;63.59;93748.84;4970671;28;20061;-78
2022/08/25 01:31:47;;;;;;;9.32;7.28;;;;;;;21.19;62.93;93757.00;4970426;28;20182;-79
2022/08/25 01:34:13;;;;;;;12.52;6.90;;;;;;;21.10;63.29;93756.59;4971591;28;20088;-78
2022/08/25 01:36:41;;;;;;;14.68;8.18;;;;;;;21.04;63.21;93736.47;4973634;28;20030;-80
2022/08/25 01:39:07;;;;;;;22.33;8.25;;;;;;;20.90;63.30;93714.78;4972555;28;20022;-82
2022/08/25 01:41:32;;;;;;;11.10;7.72;;;;;;;21.21;63.11;93762.03;4972120;28;20031;-79
2022/08/25 01:43:58;;;;;;;14.55;7.85;;;;;;;20.97;63.14;93714.84;4956029;28;20026;-80
2022/08/25 01:46:23;;;;;;;14.35;8.00;;;;;;;21.11;62.75;93731.09;4975258;28;20023;-79
2022/08/25 01:48:49;;;;;;;15.65;8.15;;;;;;;21.12;62.86;93710.25;4974572;28;20495;-80
2022/08/25 01:51:15;;;;;;;16.25;9.27;;;;;;;21.00;62.82;93687.03;4972491;28;20038;-82
2022/08/25 01:53:42;;;;;;;13.35;8.10;;;;;;;21.34;62.76;93745.06;4958778;28;20034;-80
2022/08/25 01:56:14;;;;;;;16.63;7.93;;;;;;;21.40;62.27;93746.25;4973031;28;20450;-80
2022/08/25 01:58:46;;;;;;;15.63;9.23;;;;;;;21.21;62.07;93727.66;4963775;28;20144;-80
2022/08/25 02:01:20;;;;;;;12.23;7.30;;;;;;;21.32;62.62;93746.59;4973310;28;20491;-80
2022/08/25 02:03:48;;;;;;;28.87;14.97;;;;;;;21.42;62.55;93753.97;4975597;28;20027;-80
2022/08/25 02:06:23;;;;;;;24.15;11.90;;;;;;;21.35;63.13;93762.88;4972046;28;20026;-81
2022/08/25 02:08:54;;;;;;;33.17;16.63;;;;;;;21.41;62.72;93755.91;4971713;28;20030;-81
2022/08/25 02:11:21;;;;;;;14.88;9.30;;;;;;;21.24;62.98;93745.03;4973366;28;20033;-80
2022/08/25 02:13:46;;;;;;;13.50;5.72;;;;;;;21.34;62.30;93753.19;4972812;28;20266;-80
2022/08/25 02:16:19;;;;;;;13.82;5.65;;;;;;;21.27;62.39;93738.84;4955474;28;20431;-79
2022/08/25 02:18:46;;;;;;;9.93;5.78;;;;;;;21.36;62.49;93734.63;4957208;28;20030;-79
2022/08/25 02:21:13;;;;;;;12.02;5.82;;;;;;;21.55;62.77;93740.91;4975720;28;20029;-80
2022/08/25 02:23:39;;;;;;;10.20;5.63;;;;;;;21.66;62.06;93745.16;4972483;28;20537;-81
2022/08/25 02:26:04;;;;;;;14.52;6.28;;;;;;;21.59;62.34;93734.34;4972555;28;20097;-80
2022/08/25 02:28:30;;;;;;;9.38;5.68;;;;;;;21.55;61.96;93711.16;4971830;28;20054;-80
2022/08/25 02:30:55;;;;;;;14.73;5.90;;;;;;;21.48;62.10;93719.97;4973362;28;20019;-81
2022/08/25 02:33:21;;;;;;;10.27;5.25;;;;;;;21.30;62.61;93708.38;4972065;28;20050;-81
2022/08/25 02:35:46;;;;;;;11.38;5.60;;;;;;;21.45;62.42;93734.28;4971589;28;20705;-80
2022/08/25 02:38:12;;;;;;;11.32;6.50;;;;;;;21.38;62.05;93723.44;4971962;28;20058;-80
2022/08/25 02:40:37;;;;;;;9.82;6.07;;;;;;;21.43;62.11;93729.25;4971952;28;20367;-79
2022/08/25 02:43:04;;;;;;;12.13;5.38;;;;;;;21.17;62.07;93709.88;4961430;28;20391;-82
2022/08/25 02:45:30;;;;;;;12.88;5.82;;;;;;;21.06;62.60;93722.59;4972550;28;20030;-80
2022/08/25 02:47:55;;;;;;;9.80;5.25;;;;;;;21.36;62.24;93737.34;4971476;28;20034;-81
2022/08/25 02:50:21;;;;;;;14.68;5.70;;;;;;;21.32;61.98;93725.75;4972846;28;20022;-80
2022/08/25 02:52:49;;;;;;;10.20;6.13;;;;;;;21.48;62.01;93740.84;4971524;28;20030;-80
2022/08/25 02:55:15;;;;;;;14.85;5.82;;;;;;;21.33;61.39;93711.06;4971161;28;20026;-81
2022/08/25 02:57:41;;;;;;;12.38;6.63;;;;;;;21.61;61.28;93750.19;4955592;28;20487;-80
2022/08/25 03:00:12;;;;;;;17.67;6.47;;;;;;;21.49;61.66;93750.53;4972683;28;20026;-79
2022/08/25 03:02:37;;;;;;;16.17;4.75;;;;;;;21.47;61.55;93731.97;4957068;28;20681;-79
2022/08/25 03:05:03;;;;;;;9.25;4.88;;;;;;;21.40;61.87;93719.22;4960198;28;20031;-81
2022/08/25 03:07:29;;;;;;;12.45;5.45;;;;;;;21.62;61.69;93765.25;4972996;28;20031;-79
2022/08/25 03:09:54;;;;;;;8.48;5.47;;;;;;;21.44;61.93;93722.69;4971068;28;20589;-81
2022/08/25 03:12:21;;;;;;;13.15;5.55;;;;;;;21.52;61.43;93744.34;4972476;28;20065;-80
2022/08/25 03:14:46;;;;;;;12.13;6.38;;;;;;;21.34;61.97;93734.25;4973236;28;20025;-79
2022/08/25 03:17:12;;;;;;;12.35;5.20;;;;;;;21.30;62.25;93760.53;4971079;28;20085;-79
2022/08/25 03:19:37;;;;;;;14.23;5.55;;;;;;;20.91;62.98;93727.94;4962263;28;20018;-79
2022/08/25 03:22:03;;;;;;;19.08;5.97;;;;;;;20.91;62.60;93706.31;4971151;28;20031;-82
2022/08/25 03:24:28;;;;;;;12.55;5.65;;;;;;;21.19;62.06;93738.06;4972517;28;20027;-79
2022/08/25 03:26:54;;;;;;;8.70;4.70;;;;;;;21.42;61.92;93743.94;4970266;28;20148;-79
2022/08/25 03:29:26;;;;;;;11.38;5.35;;;;;;;21.53;61.44;93749.38;4970231;28;20034;-80
2022/08/25 03:31:53;;;;;;;15.40;5.07;;;;;;;21.51;61.70;93745.50;4972182;28;20070;-79
2022/08/25 03:34:20;;;;;;;9.63;5.65;;;;;;;21.57;61.69;93752.09;4971464;28;20022;-80
2022/08/25 03:36:50;;;;;;;9.52;5.32;;;;;;;21.23;61.64;93701.00;4971329;28;20019;-80
2022/08/25 03:39:18;;;;;;;10.02;5.13;;;;;;;21.59;61.88;93758.69;4968109;28;20030;-81
2022/08/25 03:41:44;;;;;;;8.48;5.47;;;;;;;21.52;61.69;93741.63;4971547;28;20556;-80
2022/08/25 03:44:10;;;;;;;14.52;5.55;;;;;;;21.54;62.02;93742.03;4971445;28;20110;-80
2022/08/25 03:46:42;;;;;;;13.98;6.00;;;;;;;21.64;62.49;93758.31;4971046;28;20024;-81
2022/08/25 03:49:11;;;;;;;6.88;4.95;;;;;;;21.49;61.89;93715.34;4971502;28;20030;-80
2022/08/25 03:51:40;;;;;;;11.45;5.78;;;;;;;21.33;61.43;93694.84;4971633;28;20057;-81
2022/08/25 03:54:07;;;;;;;13.35;6.38;;;;;;;21.23;61.65;93686.69;4970849;28;20307;-81
2022/08/25 03:56:32;;;;;;;15.27;5.28;;;;;;;21.64;61.48;93739.38;4970181;28;20035;-79
2022/08/25 03:58:59;;;;;;;13.05;6.07;;;;;;;21.55;61.35;93727.38;4970591;28;20403;-80
2022/08/25 04:01:25;;;;;;;10.65;5.70;;;;;;;21.70;61.34;93734.38;4969816;28;20145;-80
2022/08/25 04:03:50;;;;;;;10.90;6.53;;;;;;;21.73;61.46;93745.19;4970712;28;20023;-80
2022/08/25 04:06:17;;;;;;;9.70;6.43;;;;;;;21.78;61.57;93738.63;4969144;28;20049;-80
2022/08/25 04:08:43;;;;;;;10.55;5.50;;;;;;;21.69;61.18;93716.56;4968462;28;20025;-80
2022/08/25 04:11:11;;;;;;;6.57;5.28;;;;;;;21.88;61.42;93745.97;4970475;28;20456;-79
2022/08/25 04:13:38;;;;;;;11.88;6.38;;;;;;;21.79;61.40;93734.75;4970149;28;20097;-80
2022/08/25 04:16:12;;;;;;;13.50;6.32;;;;;;;21.81;61.06;93727.00;4971714;28;20058;-81
2022/08/25 04:18:39;;;;;;;15.10;7.10;;;;;;;21.61;60.41;93698.78;4970891;28;20566;-80
2022/08/25 04:21:08;;;;;;;10.40;5.82;;;;;;;21.99;60.72;93748.69;4971661;28;20058;-80
2022/08/25 04:23:37;;;;;;;9.63;5.38;;;;;;;21.93;60.28;93734.75;4953357;28;20546;-81
2022/08/25 04:26:11;;;;;;;13.02;6.03;;;;;;;21.92;61.08;93741.31;4971712;28;20026;-80
2022/08/25 04:28:37;;;;;;;8.25;5.47;;;;;;;21.71;61.66;93714.22;4968565;28;20030;-80
2022/08/25 04:31:13;;;;;;;10.35;5.75;;;;;;;21.56;61.78;93677.53;4969502;28;20030;-81
2022/08/25 04:33:39;;;;;;;16.17;6.43;;;;;;;21.97;62.03;93734.75;4970777;28;20583;-79
2022/08/25 04:36:06;;;;;;;10.07;5.95;;;;;;;21.72;61.46;93691.44;4969199;28;20103;-80
2022/08/25 04:38:32;;;;;;;11.10;5.43;;;;;;;21.73;61.54;93715.41;4968921;28;20041;-79
2022/08/25 04:40:59;;;;;;;11.68;6.45;;;;;;;21.66;61.69;93720.03;4970541;28;20035;-80
2022/08/25 04:43:25;;;;;;;19.95;6.57;;;;;;;21.58;61.74;93721.19;4970910;28;20034;-80
2022/08/25 04:45:51;;;;;;;13.85;6.30;;;;;;;21.62;61.14;93735.50;4969162;28;20045;-80
2022/08/25 04:48:16;;;;;;;11.80;6.05;;;;;;;21.70;61.59;93745.97;4970843;28;20085;-80
2022/08/25 04:50:43;;;;;;;10.27;5.82;;;;;;;21.69;61.98;93721.97;4969447;28;20279;-80
2022/08/25 04:53:09;;;;;;;14.88;6.30;;;;;;;21.61;62.52;93739.38;4969257;28;20495;-79
2022/08/25 04:55:43;;;;;;;13.77;6.65;;;;;;;21.56;62.16;93699.16;4971907;28;20034;-81
2022/08/25 04:58:08;;;;;;;17.55;6.75;;;;;;;22.03;61.27;93750.22;4968260;28;20995;-81
2022/08/25 05:00:35;;;;;;;16.23;6.53;;;;;;;22.07;61.23;93742.09;4971637;28;20039;-79
2022/08/25 05:03:01;;;;;;;11.73;6.03;;;;;;;22.23;61.13;93762.25;4952441;28;20034;-80
2022/08/25 05:05:27;;;;;;;12.32;6.15;;;;;;;22.16;61.24;93745.19;4968406;28;20034;-79
2022/08/25 05:07:53;;;;;;;16.15;6.70;;;;;;;22.20;60.30;93746.72;4970492;28;20026;-80
2022/08/25 05:10:19;;;;;;;17.10;8.57;;;;;;;22.28;60.26;93742.91;4968587;28;20035;-79
2022/08/25 05:12:44;;;;;;;9.20;6.13;;;;;;;22.30;58.94;93735.16;4972275;28;21097;-79
2022/08/25 05:17:54;;;;;;;15.17;6.23;;;;;;;22.30;59.18;93751.41;4971164;28;20037;-79
2022/08/25 05:20:19;;;;;;;25.77;6.15;;;;;;;21.78;58.91;93689.88;4968238;28;20034;-79
2022/08/25 05:22:45;;;;;;;9.70;6.00;;;;;;;21.80;59.25;93711.94;4970607;28;20015;-80
2022/08/25 05:25:11;;;;;;;14.18;6.05;;;;;;;21.94;59.59;93733.59;4968503;28;20026;-79
2022/08/25 05:27:36;;;;;;;9.07;5.75;;;;;;;21.58;59.52;93691.41;4969772;28;20122;-80
2022/08/25 05:30:05;;;;;;;10.57;5.70;;;;;;;21.93;59.69;93736.69;4969364;28;20110;-79
2022/08/25 05:32:30;;;;;;;9.15;5.90;;;;;;;21.71;59.84;93709.59;4968879;28;20121;-80
2022/08/25 05:34:55;;;;;;;10.15;5.40;;;;;;;21.73;60.14;93731.66;4970099;28;20028;-81
2022/08/25 05:37:21;;;;;;;12.43;6.03;;;;;;;21.85;60.27;93738.63;4952643;28;20034;-79
2022/08/25 05:39:47;;;;;;;11.98;6.03;;;;;;;21.69;59.96;93740.94;4970426;28;20038;-80
2022/08/25 05:42:12;;;;;;;8.70;5.90;;;;;;;21.29;60.97;93702.19;4958777;28;20038;-81
2022/08/25 05:44:38;;;;;;;17.13;5.85;;;;;;;21.69;61.00;93738.22;4968264;28;20061;-79
2022/08/25 05:47:04;;;;;;;12.05;6.30;;;;;;;21.52;60.77;93701.81;4953707;28;20132;-80
2022/08/25 05:49:29;;;;;;;13.55;5.95;;;;;;;21.68;60.23;93721.19;4970391;28;20113;-79
2022/08/25 05:51:55;;;;;;;10.13;5.80;;;;;;;21.72;60.48;93737.44;4968748;28;20022;-81
2022/08/25 05:54:20;;;;;;;15.45;5.55;;;;;;;21.57;60.74;93730.47;4968571;28;20091;-79
2022/08/25 05:56:46;;;;;;;12.30;6.38;;;;;;;21.56;61.40;93750.56;4951830;28;20546;-80
2022/08/25 05:59:11;;;;;;;12.05;6.38;;;;;;;21.27;61.68;93739.63;4968819;28;20118;-79
2022/08/25 06:04:21;;;;;;;12.50;5.78;;;;;;;21.58;61.28;93734.72;4970726;28;20514;-80
2022/08/25 06:06:47;;;;;;;9.23;5.53;;;;;;;21.26;61.04;93683.25;4968801;28;20031;-79
2022/08/25 06:09:13;;;;;;;12.55;6.40;;;;;;;20.98;62.54;93738.78;4972159;28;20030;-79
2022/08/25 06:11:40;;;;;;;13.63;6.38;;;;;;;20.63;63.41;93737.81;4967809;28;20022;-79
2022/08/25 06:14:07;;;;;;;15.80;6.10;;;;;;;21.13;63.23;93752.34;4969623;28;20026;-79
2022/08/25 06:16:33;;;;;;;16.75;6.88;;;;;;;21.23;62.66;93755.09;4968364;28;20026;-80
2022/08/25 06:19:00;;;;;;;13.93;7.03;;;;;;;21.35;62.91;93757.44;4971301;28;20041;-80
2022/08/25 06:21:25;;;;;;;12.00;6.55;;;;;;;21.44;61.84;93740.84;4972785;28;20065;-80
2022/08/25 06:23:51;;;;;;;15.02;7.22;;;;;;;21.58;61.75;93740.91;4973388;28;20565;-79
2022/08/25 06:26:16;;;;;;;13.27;5.80;;;;;;;21.13;61.41;93738.81;4972771;28;20506;-81
2022/08/25 06:28:42;;;;;;;13.80;6.68;;;;;;;20.99;61.81;93696.28;4972204;28;20030;-81
2022/08/25 06:31:08;;;;;;;9.98;6.53;;;;;;;21.45;61.42;93718.84;4961944;28;20033;-79
2022/08/25 06:33:33;;;;;;;12.13;6.80;;;;;;;21.18;61.67;93723.00;4973094;28;20169;-80
2022/08/25 06:35:59;;;;;;;10.55;5.60;;;;;;;21.49;62.59;93750.53;4961230;28;20026;-80
2022/08/25 06:38:25;;;;;;;15.82;7.32;;;;;;;21.23;62.02;93719.94;4973727;28;20104;-80
2022/08/25 06:40:51;;;;;;;11.18;5.00;;;;;;;21.34;61.26;93734.25;4972190;28;20470;-80
2022/08/25 06:43:20;;;;;;;9.95;5.85;;;;;;;21.20;61.94;93709.88;4973629;28;20039;-81
2022/08/25 06:45:47;;;;;;;12.68;6.00;;;;;;;21.36;62.06;93710.28;4971855;28;20027;-80
2022/08/25 06:48:13;;;;;;;13.02;8.30;;;;;;;21.43;62.11;93731.19;4963252;28;20034;-80
2022/08/25 06:50:39;;;;;;;20.40;6.20;;;;;;;21.61;62.10;93734.72;4969975;28;20679;-81
2022/08/25 06:53:05;;;;;;;13.30;6.28;;;;;;;21.44;61.47;93725.41;4971787;28;20148;-81
2022/08/25 06:55:30;;;;;;;15.23;8.48;;;;;;;21.19;61.13;93726.47;4972332;28;20072;-79
2022/08/25 06:57:56;;;;;;;8.88;5.00;;;;;;;21.13;59.90;93695.56;4973001;28;20113;-80
2022/08/25 07:00:21;;;;;;;13.75;5.55;;;;;;;21.66;59.68;93717.31;4972026;28;20304;-79
2022/08/25 07:02:47;;;;;;;10.65;6.38;;;;;;;21.34;61.24;93730.78;4972643;28;20070;-78
2022/08/25 07:05:13;;;;;;;10.73;5.70;;;;;;;21.63;61.38;93696.44;4971553;28;20405;-79
2022/08/25 07:07:38;;;;;;;11.57;4.93;;;;;;;22.07;60.41;93742.88;4971122;28;20057;-78
2022/08/25 07:10:05;;;;;;;10.23;4.60;;;;;;;22.14;57.62;93696.06;4972101;28;20026;-79
2022/08/25 07:12:30;;;;;;;8.45;4.80;;;;;;;22.35;56.21;93714.25;4972554;28;20455;-81
2022/08/25 07:14:56;;;;;;;10.88;4.75;;;;;;;22.63;56.18;93730.47;4968988;28;20036;-80
2022/08/25 07:17:22;;;;;;;10.63;4.13;;;;;;;22.79;55.46;93743.56;4971448;28;20304;-80
2022/08/25 07:19:48;;;;;;;12.63;5.18;;;;;;;22.80;55.84;93745.13;4971633;28;20026;-80
2022/08/25 07:22:14;;;;;;;15.70;5.20;;;;;;;22.94;54.47;93747.81;4970049;28;20487;-80
2022/08/25 07:24:39;;;;;;;9.63;5.05;;;;;;;22.57;54.22;93699.50;4972031;28;20033;-81
2022/08/25 07:27:05;;;;;;;12.93;5.20;;;;;;;22.96;54.81;93732.72;4958627;28;20030;-80
2022/08/25 07:29:32;;;;;;;14.52;5.90;;;;;;;23.10;54.43;93737.28;4972296;28;20049;-80
2022/08/25 07:32:01;;;;;;;10.43;5.63;;;;;;;22.91;55.71;93697.84;4959560;28;20491;-80
2022/08/25 07:37:11;;;;;;;9.82;4.50;;;;;;;23.45;52.67;93722.78;4970541;28;20030;-79
2022/08/25 07:39:36;;;;;;;13.45;5.38;;;;;;;23.69;52.28;93731.97;4959524;28;20029;-79
2022/08/25 07:42:03;;;;;;;9.63;4.50;;;;;;;23.73;52.09;93736.22;4971935;28;20038;-78
2022/08/25 07:44:29;;;;;;;18.65;5.55;;;;;;;23.62;51.07;93748.28;4956064;28;20030;-79
2022/08/25 07:46:55;;;;;;;11.60;5.15;;;;;;;23.35;51.48;93729.03;4972031;28;20030;-80
2022/08/25 07:49:24;;;;;;;9.88;4.65;;;;;;;23.65;52.07;93742.88;4972455;28;20372;-79
2022/08/25 07:51:51;;;;;;;9.50;3.97;;;;;;;23.47;51.47;93750.28;4971215;28;20426;-79
2022/08/25 07:54:17;;;;;;;12.80;5.97;;;;;;;23.27;52.66;93697.69;4970823;28;20093;-80
2022/08/25 07:56:42;;;;;;;13.23;4.53;;;;;;;23.58;51.96;93740.19;4961665;28;20451;-79
2022/08/25 07:59:08;;;;;;;8.63;4.50;;;;;;;23.63;52.14;93742.47;4971344;28;20070;-79
2022/08/25 08:01:34;;;;;;;22.30;6.03;;;;;;;23.32;52.37;93738.72;4970610;28;20019;-79
2022/08/25 08:03:59;;;;;;;17.92;4.85;;;;;;;23.40;52.57;93731.34;4971184;28;20465;-79
2022/08/25 08:06:26;;;;;;;12.25;4.85;;;;;;;23.59;52.86;93741.72;4969353;28;20064;-79
2022/08/25 08:08:53;;;;;;;18.00;4.85;;;;;;;23.44;52.05;93737.50;4970842;28;20458;-79
2022/08/25 08:11:25;;;;;;;18.27;4.70;;;;;;;23.29;52.53;93708.91;4969900;28;20026;-80
2022/08/25 08:13:53;;;;;;;9.13;4.43;;;;;;;23.46;52.51;93737.91;4961229;28;20023;-79
2022/08/25 08:16:21;;;;;;;14.05;4.13;;;;;;;23.67;52.07;93739.72;4969177;28;20537;-79
2022/08/25 08:18:47;;;;;;;23.45;5.03;;;;;;;22.96;51.86;93738.13;4954918;28;20556;-79
2022/08/25 08:21:18;;;;;;;12.85;5.93;;;;;;;22.75;52.88;93721.91;4969723;28;20026;-79
2022/08/25 08:23:44;;;;;;;10.93;4.55;;;;;;;22.88;53.08;93709.47;4970619;28;20118;-79
2022/08/25 08:26:10;;;;;;;10.73;5.50;;;;;;;23.07;54.73;93703.59;4969836;28;20046;-79
2022/08/25 08:28:35;;;;;;;20.23;5.15;;;;;;;23.05;53.02;93722.19;4970054;28;20061;-79
2022/08/25 08:31:01;;;;;;;12.95;4.57;;;;;;;23.34;52.88;93713.91;4971035;28;20135;-79
2022/08/25 08:33:27;;;;;;;14.90;4.75;;;;;;;23.51;52.57;93702.97;4969721;28;20042;-79
2022/08/25 08:35:58;;;;;;;9.30;4.30;;;;;;;23.52;51.07;93687.47;4968675;28;20394;-80
2022/08/25 08:38:24;;;;;;;15.23;4.55;;;;;;;23.54;52.45;93723.91;4970930;28;20026;-79
2022/08/25 08:44:29;;;;;;;10.95;4.18;;;;;;;23.94;50.65;93719.78;4969060;28;20092;-79
2022/08/25 08:46:54;;;;;;;13.82;4.43;;;;;;;23.71;51.67;93716.81;4968962;28;20037;-79
2022/08/25 08:49:51;;;;;;;17.10;5.13;;;;;;;23.84;51.50;93715.19;4950801;28;20034;-79
2022/08/25 08:52:21;;;;;;;25.15;5.32;;;;;;;23.61;51.61;93714.97;4970123;28;20026;-80
2022/08/25 08:54:51;;;;;;;17.85;5.75;;;;;;;23.30;52.70;93713.94;4952498;28;20538;-79
2022/08/25 08:57:24;;;;;;;17.75;5.18;;;;;;;23.52;51.85;93701.03;4954905;28;20434;-78
2022/08/25 08:59:56;;;;;;;13.43;4.72;;;;;;;23.59;51.51;93679.28;4969867;28;20026;-79
2022/08/25 09:02:40;;;;;;;15.80;5.85;;;;;;;23.90;50.67;93712.81;4959415;28;20034;-79
2022/08/25 09:05:11;;;;;;;25.83;5.60;;;;;;;23.98;49.28;93709.63;4952362;28;20026;-82
2022/08/25 09:08:09;;;;;;;14.35;4.50;;;;;;;24.01;48.75;93714.25;4950811;28;20030;-82
2022/08/25 09:10:44;;;;;;;13.68;5.82;;;;;;;23.71;50.21;93683.50;4961719;28;20038;-80
2022/08/25 09:13:23;;;;;;;16.48;5.20;;;;;;;23.56;50.42;93707.25;4968128;28;20053;-80
2022/08/25 09:19:35;;;;;;;14.13;4.55;;;;;;;23.40;50.83;93687.91;4970763;28;20421;-80
2022/08/25 09:22:22;;;;;;;12.77;4.68;;;;;;;23.76;50.30;93705.53;4950912;28;20647;-81
2022/08/25 09:24:53;;;;;;;18.48;4.72;;;;;;;23.86;49.94;93701.97;4969341;28;20058;-81
2022/08/25 09:27:21;;;;;;;13.90;5.47;;;;;;;23.82;50.50;93706.66;4951369;28;20030;-80
2022/08/25 09:30:08;;;;;;;15.80;5.38;;;;;;;23.49;50.88;93664.63;4968987;28;20547;-80
2022/08/25 09:32:38;;;;;;;14.75;5.25;;;;;;;23.99;50.33;93704.97;4969891;28;20077;-80
2022/08/25 09:35:06;;;;;;;10.50;4.57;;;;;;;23.73;48.91;93672.97;4968873;28;20467;-79
2022/08/25 09:37:31;;;;;;;12.95;5.25;;;;;;;24.04;48.04;93692.91;4968792;28;20022;-79
2022/08/25 09:39:57;;;;;;;20.85;5.35;;;;;;;24.09;48.02;93681.63;4970584;28;20060;-79
2022/08/25 09:42:49;;;;;;;25.88;4.50;;;;;;;24.33;47.78;93699.66;4968987;28;20450;-79
2022/08/25 09:45:16;;;;;;;10.73;5.50;;;;;;;24.27;48.53;93685.75;4968125;28;20249;-79
2022/08/25 09:47:44;;;;;;;14.80;3.67;;;;;;;24.39;46.33;93696.09;4970004;28;20485;-79
2022/08/25 09:50:15;;;;;;;7.38;3.47;;;;;;;24.12;46.93;93703.34;4970267;28;20034;-80
2022/08/25 09:52:43;;;;;;;14.80;4.38;;;;;;;24.23;46.24;93704.03;4969726;28;20305;-79
2022/08/25 09:55:12;;;;;;;17.25;4.78;;;;;;;24.36;46.67;93701.56;4972876;28;20035;-80
2022/08/25 09:57:47;;;;;;;11.15;3.90;;;;;;;24.35;45.00;93708.16;4972859;28;20065;-80
2022/08/25 10:00:32;;;;;;;16.92;3.55;;;;;;;24.27;44.20;93687.69;4956239;28;20069;-79
2022/08/25 10:03:10;;;;;;;8.02;2.95;;;;;;;24.30;44.27;93684.16;4973004;28;20454;-79
2022/08/25 10:05:54;;;;;;;21.02;4.45;;;;;;;24.43;43.95;93702.28;4973631;28;20124;-81
2022/08/25 10:08:50;;;;;;;22.88;3.78;;;;;;;24.41;45.39;93701.13;4956447;28;20133;-79
2022/08/25 10:11:33;;;;;;;12.95;2.90;;;;;;;24.44;44.29;93698.38;4894736;28;20129;-81
2022/08/25 10:14:04;;;;;;;8.93;3.03;;;;;;;24.33;43.71;93696.94;4974318;28;20757;-79
2022/08/25 10:16:31;;;;;;;15.73;2.92;;;;;;;24.38;43.43;93704.66;4973476;28;20031;-79
2022/08/25 10:19:00;;;;;;;12.70;2.65;;;;;;;24.32;42.64;93701.59;4974677;28;20791;-79
2022/08/25 10:21:25;;;;;;;15.85;3.67;;;;;;;24.19;43.97;93700.56;4971936;28;20030;-79
2022/08/25 10:23:54;;;;;;;8.35;2.47;;;;;;;24.25;44.79;93707.09;4972980;28;20026;-79
2022/08/25 10:26:43;;;;;;;21.38;3.35;;;;;;;24.16;45.83;93689.72;4957750;28;20060;-80
2022/08/25 10:29:33;;;;;;;8.63;2.72;;;;;;;24.13;46.00;93683.16;4955050;28;20026;-79
2022/08/25 10:32:09;;;;;;;14.38;2.78;;;;;;;24.36;45.15;93696.13;4973487;28;20481;-82
2022/08/25 10:34:47;;;;;;;5.07;2.13;;;;;;;24.46;45.01;93695.25;4975287;28;20035;-79
2022/08/25 10:37:22;;;;;;;12.75;3.17;;;;;;;24.46;44.30;93687.09;4971764;28;20030;-81
2022/08/25 10:40:07;;;;;;;14.30;3.78;;;;;;;24.55;42.96;93692.81;4972337;28;20077;-80
2022/08/25 10:42:42;;;;;;;12.23;2.17;;;;;;;24.47;42.01;93675.06;4973497;28;20074;-79
2022/08/25 10:48:06;;;;;;;4.70;2.28;;;;;;;24.46;43.34;93678.16;4972297;28;20450;-79
2022/08/25 10:51:01;;;;;;;14.45;2.70;;;;;;;24.35;43.88;93651.88;4972951;28;20037;-79
2022/08/25 10:53:32;;;;;;;;;;;;;;;24.60;42.25;93675.31;4967179;28;20137;-78
2022/08/25 10:56:04;;;;;;;7.63;2.33;;;;;;;24.66;41.80;93671.75;4962513;28;19914;-79
2022/08/25 10:58:48;;;;;;;8.63;1.95;;;;;;;24.70;41.68;93675.19;4974219;28;20030;-79
2022/08/25 11:01:37;;;;;;;5.65;3.15;;;;;;;24.64;46.72;93662.44;4953671;28;20025;-79
2022/08/25 11:04:09;;;;;;;10.40;2.28;;;;;;;24.81;42.25;93670.44;4954860;28;20027;-80
2022/08/25 11:06:49;;;;;;;4.78;1.92;;;;;;;24.83;41.76;93654.47;4970384;28;20026;-81
2022/08/25 11:09:22;;;;;;;7.65;2.55;;;;;;;24.85;42.24;93641.22;4972542;28;20057;-83
2022/08/25 11:12:01;;;;;;;6.40;2.15;;;;;;;24.88;41.26;93650.53;4973162;28;20049;-80
2022/08/25 11:14:38;;;;;;;8.90;2.55;;;;;;;24.71;41.58;93630.53;4972948;28;20038;-82
2022/08/25 11:17:24;;;;;;;10.68;2.58;;;;;;;24.58;42.33;93610.47;4955746;28;20117;-81
2022/08/25 11:19:54;;;;;;;14.52;2.97;;;;;;;24.74;41.64;93643.31;4973239;28;20022;-83
2022/08/25 11:22:44;;;;;;;13.82;2.72;;;;;;;24.92;42.26;93650.50;4971320;28;20566;-80
2022/08/25 11:25:10;;;;;;;5.60;2.38;;;;;;;24.85;41.06;93648.63;4962941;28;20500;-81
2022/08/25 11:28:04;;;;;;;8.98;2.65;;;;;;;24.78;41.44;93625.00;4973363;28;20022;-78
2022/08/25 11:30:29;;;;;;;12.48;2.53;;;;;;;24.95;42.40;93644.22;4972066;28;20030;-78
2022/08/25 11:32:55;;;;;;;6.25;2.78;;;;;;;24.91;41.79;93627.19;4972635;28;22307;-78
2022/08/25 11:35:32;;;;;;;11.98;2.70;;;;;;;25.02;41.67;93635.97;4971889;28;20034;-79
2022/08/25 11:38:13;;;;;;;11.57;2.33;;;;;;;25.08;42.17;93634.31;4972316;28;20125;-82
2022/08/25 11:40:47;;;;;;;9.90;2.90;;;;;;;25.20;43.00;93628.34;4969975;28;20620;-81
2022/08/25 11:43:21;;;;;;;;;;;;;;;25.25;41.58;93622.44;4955508;28;20038;-81
2022/08/25 11:45:52;;;;;;;19.20;4.38;;;;;;;24.98;41.66;93632.53;4972212;28;20403;-80
2022/08/25 11:48:34;;;;;;;7.50;2.83;;;;;;;25.06;41.37;93623.88;4972127;28;20084;-82
2022/08/25 11:50:59;;;;;;;7.00;2.38;;;;;;;25.03;41.25;93627.41;4961089;28;20022;-79
2022/08/25 11:53:27;;;;;;;11.10;2.42;;;;;;;25.00;41.54;93605.69;4953565;28;20085;-81
2022/08/25 11:55:57;;;;;;;10.00;3.13;;;;;;;25.16;41.48;93620.22;4972210;28;20109;-80